Time;durP1;ratioP1;P1;durP2;ratioP2;P2;SDS_P1;SDS_P2;PMS_P1;PMS_P2;Temp;Humidity;BMP_temperature;BMP_pressure;BME280_temperature;BME280_humidity;BME280_pressure;Samples;Min_cycle;Max_cycle;Signal;HPM_P1;HPM_P2
2023/12/19 00:02:01;;;;;;;;;;;7.40;99.90;;;;;;5010323;28;20431;-59
2023/12/19 00:04:28;;;;;;;;;;;7.40;99.90;;;;;;5014056;28;19935;-61
2023/12/19 00:06:55;;;;;;;;;;;7.50;99.90;;;;;;5012330;28;19929;-58
2023/12/19 00:09:22;;;;;;;;;;;7.50;99.90;;;;;;5019181;28;20547;-59
2023/12/19 00:11:49;;;;;;;;;;;7.50;99.90;;;;;;5018493;28;19933;-60
2023/12/19 00:14:16;;;;;;;;;;;7.50;99.90;;;;;;5020259;28;20318;-58
2023/12/19 00:16:42;;;;;;;;;;;7.50;99.90;;;;;;5014052;28;19953;-63
2023/12/19 00:19:09;;;;;;;;;;;7.50;99.90;;;;;;5010667;28;19933;-62
2023/12/19 00:21:36;;;;;;;;;;;7.50;99.90;;;;;;5002308;28;19931;-63
2023/12/19 00:24:03;;;;;;;;;;;7.50;99.90;;;;;;5006302;28;19925;-61
2023/12/19 00:26:30;;;;;;;;;;;7.40;99.90;;;;;;5014491;28;20363;-65
2023/12/19 00:28:57;;;;;;;;;;;7.40;99.90;;;;;;5016900;28;19932;-59
2023/12/19 00:31:26;;;;;;;;;;;7.30;99.90;;;;;;5017534;28;19969;-62
2023/12/19 00:33:53;;;;;;;;;;;7.30;99.90;;;;;;5016445;28;19925;-58
2023/12/19 00:36:21;;;;;;;;;;;7.20;99.90;;;;;;5016305;28;19924;-58
2023/12/19 00:38:48;;;;;;;;;;;7.30;99.90;;;;;;5019539;28;19931;-59
2023/12/19 00:41:16;;;;;;;;;;;7.20;99.90;;;;;;5013744;28;19957;-59
2023/12/19 00:43:44;;;;;;;;;;;7.20;99.90;;;;;;5006420;28;19925;-58
2023/12/19 00:46:11;;;;;;;;;;;7.20;99.90;;;;;;5006677;28;20657;-58
2023/12/19 00:48:38;;;;;;;;;;;7.20;99.90;;;;;;5015664;28;19960;-60
2023/12/19 00:51:10;;;;;;;;;;;7.30;99.90;;;;;;5013851;28;20337;-59
2023/12/19 00:53:37;;;;;;;;;;;7.30;99.90;;;;;;5015961;28;19929;-61
2023/12/19 00:56:11;;;;;;;;;;;7.30;99.90;;;;;;5010514;28;19930;-61
2023/12/19 00:58:38;;;;;;;;;;;7.20;99.90;;;;;;5017308;28;19999;-61
2023/12/19 01:01:06;;;;;;;;;;;7.20;99.90;;;;;;5019119;28;19932;-59
2023/12/19 01:03:33;;;;;;;;;;;7.20;99.90;;;;;;5017810;28;20399;-59
2023/12/19 01:06:01;;;;;;;;;;;7.20;99.90;;;;;;5002925;28;19929;-58
2023/12/19 01:08:28;;;;;;;;;;;7.20;99.90;;;;;;5011375;28;19925;-60
2023/12/19 01:10:55;;;;;;;;;;;7.20;99.90;;;;;;5010354;28;20306;-58
2023/12/19 01:13:22;;;;;;;;;;;7.10;99.90;;;;;;5013526;28;19997;-59
2023/12/19 01:15:49;;;;;;;;;;;7.10;99.90;;;;;;5011997;28;19979;-59
2023/12/19 01:18:16;;;;;;;;;;;7.10;99.90;;;;;;5012266;28;19987;-61
2023/12/19 01:20:44;;;;;;;;;;;7.10;99.90;;;;;;5011625;28;19933;-58
2023/12/19 01:23:11;;;;;;;;;;;7.00;99.90;;;;;;5014865;28;19925;-60
2023/12/19 01:25:39;;;;;;;;;;;7.00;99.90;;;;;;5007245;28;20040;-59
2023/12/19 01:28:06;;;;;;;;;;;7.00;99.90;;;;;;5006847;28;19930;-59
2023/12/19 01:30:38;;;;;;;;;;;7.00;99.90;;;;;;5011016;28;19925;-62
2023/12/19 01:33:07;;;;;;;;;;;7.00;99.90;;;;;;5011249;28;19932;-58
2023/12/19 01:35:34;;;;;;;;;;;7.00;99.90;;;;;;5012955;28;20426;-58
2023/12/19 01:38:01;;;;;;;;;;;7.00;99.90;;;;;;5012387;28;19929;-62
2023/12/19 01:40:34;;;;;;;;;;;7.10;99.90;;;;;;5016805;28;19964;-61
2023/12/19 01:43:01;;;;;;;;;;;7.10;99.90;;;;;;5009681;28;19987;-60
2023/12/19 01:45:29;;;;;;;;;;;7.10;99.90;;;;;;5020891;28;19929;-63
2023/12/19 01:47:56;;;;;;;;;;;7.10;99.90;;;;;;5016414;28;19930;-61
2023/12/19 01:50:23;;;;;;;;;;;7.10;99.90;;;;;;5023036;28;20015;-59
2023/12/19 01:52:54;;;;;;;;;;;7.10;99.90;;;;;;5006890;28;19950;-61
2023/12/19 01:55:23;;;;;;;;;;;7.20;99.90;;;;;;5005570;28;19929;-58
2023/12/19 01:57:50;;;;;;;;;;;7.20;99.90;;;;;;5011633;28;20410;-59
2023/12/19 02:00:17;;;;;;;;;;;7.30;99.90;;;;;;5007030;28;19994;-59
2023/12/19 02:02:44;;;;;;;;;;;7.30;99.90;;;;;;5009095;28;19929;-61
2023/12/19 02:05:13;;;;;;;;;;;7.30;99.90;;;;;;5008369;28;19991;-59
2023/12/19 02:07:40;;;;;;;;;;;7.30;99.90;;;;;;5008456;28;20024;-62
2023/12/19 02:10:07;;;;;;;;;;;7.40;99.90;;;;;;5016485;28;19957;-58
2023/12/19 02:12:34;;;;;;;;;;;7.40;99.90;;;;;;5010042;28;20052;-58
2023/12/19 02:15:01;;;;;;;;;;;7.40;99.90;;;;;;5004399;28;19929;-59
2023/12/19 02:17:28;;;;;;;;;;;7.40;99.90;;;;;;5008227;28;20361;-59
2023/12/19 02:19:55;;;;;;;;;;;7.40;99.90;;;;;;5010079;28;19929;-60
2023/12/19 02:22:22;;;;;;;;;;;7.40;99.90;;;;;;5012623;28;19972;-58
2023/12/19 02:24:49;;;;;;;;;;;7.30;99.90;;;;;;5013475;28;19933;-61
2023/12/19 02:27:18;;;;;;;;;;;7.30;99.90;;;;;;5012727;28;19929;-59
2023/12/19 02:29:45;;;;;;;;;;;7.30;99.90;;;;;;5009041;28;19982;-59
2023/12/19 02:32:11;;;;;;;;;;;7.30;99.90;;;;;;5018190;28;19987;-58
2023/12/19 02:34:38;;;;;;;;;;;7.20;99.90;;;;;;5013278;28;20321;-59
2023/12/19 02:37:05;;;;;;;;;;;7.20;99.90;;;;;;5017752;28;19925;-58
2023/12/19 02:39:32;;;;;;;;;;;7.20;99.90;;;;;;5009059;28;19929;-63
2023/12/19 02:41:59;;;;;;;;;;;7.20;99.90;;;;;;5007652;28;19926;-59
2023/12/19 02:44:26;;;;;;;;;;;7.20;99.90;;;;;;5010644;28;19925;-58
2023/12/19 02:46:53;;;;;;;;;;;7.20;99.90;;;;;;5010594;28;20718;-59
2023/12/19 02:49:20;;;;;;;;;;;7.20;99.90;;;;;;5010602;28;20295;-59
2023/12/19 02:51:47;;;;;;;;;;;7.40;99.90;;;;;;5014739;28;19933;-59
2023/12/19 02:54:13;;;;;;;;;;;7.40;99.90;;;;;;5017065;28;19933;-59
2023/12/19 02:56:40;;;;;;;;;;;7.40;99.90;;;;;;5024644;28;20280;-59
2023/12/19 02:59:07;;;;;;;;;;;7.50;99.90;;;;;;5020147;28;20341;-60
2023/12/19 03:01:34;;;;;;;;;;;7.50;99.90;;;;;;5016206;28;19933;-59
2023/12/19 03:04:01;;;;;;;;;;;7.60;99.90;;;;;;4994768;28;20003;-62
2023/12/19 03:06:28;;;;;;;;;;;7.60;99.90;;;;;;5007374;28;20319;-64
2023/12/19 03:08:57;;;;;;;;;;;7.70;99.90;;;;;;5005267;28;20295;-60
2023/12/19 03:11:24;;;;;;;;;;;7.80;99.90;;;;;;5008416;28;19929;-58
2023/12/19 03:13:51;;;;;;;;;;;7.80;99.90;;;;;;5012973;28;20555;-62
2023/12/19 03:16:18;;;;;;;;;;;7.80;99.90;;;;;;5011264;28;19933;-64
2023/12/19 03:18:45;;;;;;;;;;;7.90;99.90;;;;;;5010442;28;19972;-61
2023/12/19 03:21:12;;;;;;;;;;;7.90;99.90;;;;;;5014772;28;19991;-62
2023/12/19 03:23:38;;;;;;;;;;;7.80;99.90;;;;;;5015596;28;19979;-61
2023/12/19 03:26:06;;;;;;;;;;;7.80;99.90;;;;;;5005383;28;19948;-59
2023/12/19 03:28:35;;;;;;;;;;;7.70;99.90;;;;;;5005442;28;19957;-60
2023/12/19 03:31:02;;;;;;;;;;;7.70;99.90;;;;;;5002439;28;20005;-61
2023/12/19 03:33:29;;;;;;;;;;;7.70;99.90;;;;;;5000559;28;19936;-61
2023/12/19 03:35:56;;;;;;;;;;;7.60;99.90;;;;;;5006514;28;19925;-64
2023/12/19 03:38:22;;;;;;;;;;;7.60;99.90;;;;;;5011969;28;20016;-58
2023/12/19 03:40:49;;;;;;;;;;;7.60;99.90;;;;;;5002596;28;20676;-59
2023/12/19 03:43:16;;;;;;;;;;;7.60;99.90;;;;;;5012781;28;19925;-58
2023/12/19 03:45:43;;;;;;;;;;;7.60;99.90;;;;;;5012561;28;19934;-58
2023/12/19 03:48:10;;;;;;;;;;;7.70;99.90;;;;;;5008285;28;20008;-64
2023/12/19 03:50:37;;;;;;;;;;;7.70;99.90;;;;;;4995960;28;19926;-58
2023/12/19 03:53:04;;;;;;;;;;;7.80;99.90;;;;;;5007778;28;19925;-61
2023/12/19 03:55:30;;;;;;;;;;;7.80;99.90;;;;;;5009347;28;19934;-63
2023/12/19 03:57:57;;;;;;;;;;;7.90;99.90;;;;;;5012244;28;20361;-59
2023/12/19 04:00:24;;;;;;;;;;;7.90;99.90;;;;;;5009799;28;19983;-60
2023/12/19 04:02:51;;;;;;;;;;;7.90;99.90;;;;;;5015532;28;19929;-62
2023/12/19 04:05:17;;;;;;;;;;;8.00;99.90;;;;;;5007253;28;20030;-59
2023/12/19 04:07:44;;;;;;;;;;;8.00;99.90;;;;;;5013489;28;20390;-60
2023/12/19 04:10:11;;;;;;;;;;;8.00;99.90;;;;;;5011218;28;19956;-63
2023/12/19 04:12:38;;;;;;;;;;;8.00;99.90;;;;;;5010261;28;19926;-63
2023/12/19 04:15:05;;;;;;;;;;;8.00;99.90;;;;;;5007631;28;19929;-65
2023/12/19 04:17:32;;;;;;;;;;;8.00;99.90;;;;;;5013019;28;19929;-66
2023/12/19 04:19:59;;;;;;;;;;;7.90;99.90;;;;;;5006148;28;19925;-64
2023/12/19 04:22:26;;;;;;;;;;;7.90;99.90;;;;;;5012719;28;19992;-58
2023/12/19 04:24:53;;;;;;;;;;;7.90;99.90;;;;;;5011527;28;19962;-58
2023/12/19 04:27:20;;;;;;;;;;;7.90;99.90;;;;;;5014478;28;20035;-62
2023/12/19 04:29:47;;;;;;;;;;;7.90;99.90;;;;;;5009777;28;20570;-60
2023/12/19 04:32:14;;;;;;;;;;;7.80;99.90;;;;;;5010141;28;20039;-62
2023/12/19 04:34:41;;;;;;;;;;;7.80;99.90;;;;;;5011524;28;20453;-66
2023/12/19 04:37:08;;;;;;;;;;;7.80;99.90;;;;;;5001517;28;19933;-58
2023/12/19 04:39:35;;;;;;;;;;;7.80;99.90;;;;;;5004996;28;20059;-61
2023/12/19 04:42:06;;;;;;;;;;;7.80;99.90;;;;;;5010123;28;19965;-61
2023/12/19 04:44:34;;;;;;;;;;;7.80;99.90;;;;;;5005144;28;19929;-61
2023/12/19 04:47:01;;;;;;;;;;;7.80;99.90;;;;;;5009934;28;21259;-62
2023/12/19 04:49:28;;;;;;;;;;;7.80;99.90;;;;;;5009632;28;19934;-59
2023/12/19 04:51:55;;;;;;;;;;;7.90;99.90;;;;;;5016544;28;19960;-61
2023/12/19 04:54:22;;;;;;;;;;;7.90;99.90;;;;;;5003081;28;19944;-62
2023/12/19 04:56:50;;;;;;;;;;;7.80;99.90;;;;;;5017637;28;19996;-63
2023/12/19 04:59:17;;;;;;;;;;;7.80;99.90;;;;;;5011260;28;19936;-63
2023/12/19 05:01:44;;;;;;;;;;;7.80;99.90;;;;;;5009387;28;19948;-62
2023/12/19 05:04:11;;;;;;;;;;;7.80;99.90;;;;;;5003180;28;19964;-60
2023/12/19 05:06:38;;;;;;;;;;;7.80;99.90;;;;;;5010595;28;20439;-60
2023/12/19 05:09:05;;;;;;;;;;;7.80;99.90;;;;;;5007007;28;19929;-58
2023/12/19 05:11:32;;;;;;;;;;;7.80;99.90;;;;;;5004274;28;20437;-60
2023/12/19 05:13:58;;;;;;;;;;;7.80;99.90;;;;;;5015862;28;20549;-59
2023/12/19 05:16:25;;;;;;;;;;;7.80;99.90;;;;;;5011494;28;20403;-59
2023/12/19 05:18:52;;;;;;;;;;;7.80;99.90;;;;;;5012515;28;20396;-64
2023/12/19 05:21:21;;;;;;;;;;;7.70;99.90;;;;;;5011541;28;20398;-61
2023/12/19 05:23:48;;;;;;;;;;;7.70;99.90;;;;;;5001279;28;19925;-59
2023/12/19 05:26:14;;;;;;;;;;;7.70;99.90;;;;;;4999303;28;20028;-63
2023/12/19 05:28:41;;;;;;;;;;;7.70;99.90;;;;;;5010020;28;19929;-59
2023/12/19 05:31:09;;;;;;;;;;;7.70;99.90;;;;;;5007517;28;19991;-60
2023/12/19 05:33:37;;;;;;;;;;;7.60;99.90;;;;;;5006540;28;19925;-60
2023/12/19 05:36:04;;;;;;;;;;;7.60;99.90;;;;;;5007430;28;19933;-59
2023/12/19 05:38:32;;;;;;;;;;;7.60;99.90;;;;;;5010374;28;19933;-61
2023/12/19 05:40:59;;;;;;;;;;;7.60;99.90;;;;;;5008561;28;20032;-58
2023/12/19 05:43:26;;;;;;;;;;;7.60;99.90;;;;;;5013591;28;20367;-61
2023/12/19 05:45:52;;;;;;;;;;;7.50;99.90;;;;;;5009105;28;19933;-64
2023/12/19 05:48:20;;;;;;;;;;;7.50;99.90;;;;;;5000528;28;19972;-58
2023/12/19 05:50:48;;;;;;;;;;;7.40;99.90;;;;;;5004865;28;19972;-59
2023/12/19 05:53:15;;;;;;;;;;;7.40;99.90;;;;;;5003255;28;19934;-58
2023/12/19 05:55:42;;;;;;;;;;;7.40;99.90;;;;;;5005448;28;20598;-60
2023/12/19 05:58:09;;;;;;;;;;;7.30;99.90;;;;;;5007466;28;19929;-58
2023/12/19 06:00:36;;;;;;;;;;;7.30;99.90;;;;;;5008653;28;20315;-62
2023/12/19 06:03:03;;;;;;;;;;;7.10;99.90;;;;;;5012095;28;20024;-61
2023/12/19 06:05:30;;;;;;;;;;;7.10;99.90;;;;;;5013409;28;19933;-62
2023/12/19 06:08:00;;;;;;;;;;;7.00;99.90;;;;;;5010234;28;20647;-61
2023/12/19 06:10:27;;;;;;;;;;;6.90;99.90;;;;;;5006801;28;19929;-63
2023/12/19 06:12:54;;;;;;;;;;;6.90;99.90;;;;;;5008666;28;20606;-61
2023/12/19 06:15:21;;;;;;;;;;;6.90;99.90;;;;;;5005569;28;19992;-59
2023/12/19 06:17:48;;;;;;;;;;;6.90;99.90;;;;;;5009437;28;19929;-60
2023/12/19 06:20:15;;;;;;;;;;;6.90;99.90;;;;;;5005568;28;19941;-60
2023/12/19 06:22:42;;;;;;;;;;;6.90;99.90;;;;;;5003364;28;20392;-61
2023/12/19 06:25:09;;;;;;;;;;;6.80;99.90;;;;;;5008524;28;19935;-58
2023/12/19 06:27:36;;;;;;;;;;;6.80;99.90;;;;;;5011725;28;19983;-59
2023/12/19 06:30:04;;;;;;;;;;;6.80;99.90;;;;;;5009720;28;19930;-61
2023/12/19 06:32:47;;;;;;;;;;;6.80;99.90;;;;;;5014820;28;19934;-58
2023/12/19 06:35:14;;;;;;;;;;;6.80;99.90;;;;;;5010404;28;20299;-59
2023/12/19 06:37:41;;;;;;;;;;;6.80;99.90;;;;;;5003719;28;19930;-60
2023/12/19 06:40:08;;;;;;;;;;;6.70;99.90;;;;;;5011160;28;19933;-57
2023/12/19 06:42:35;;;;;;;;;;;6.80;99.90;;;;;;5010173;28;19933;-58
2023/12/19 06:45:02;;;;;;;;;;;6.70;99.90;;;;;;5007379;28;20284;-65
2023/12/19 06:47:29;;;;;;;;;;;6.70;99.90;;;;;;5008491;28;19933;-60
2023/12/19 06:49:56;;;;;;;;;;;6.60;99.90;;;;;;5007943;28;19933;-61
2023/12/19 06:52:23;;;;;;;;;;;6.60;99.90;;;;;;5010852;28;19933;-62
2023/12/19 06:54:50;;;;;;;;;;;6.60;99.90;;;;;;5019152;28;20300;-59
2023/12/19 06:57:16;;;;;;;;;;;6.50;99.90;;;;;;5006998;28;20257;-58
2023/12/19 06:59:44;;;;;;;;;;;6.50;99.90;;;;;;5006098;28;19991;-64
2023/12/19 07:02:10;;;;;;;;;;;6.50;99.90;;;;;;5012077;28;20568;-61
2023/12/19 07:04:37;;;;;;;;;;;6.50;99.90;;;;;;5012386;28;20040;-63
2023/12/19 07:07:04;;;;;;;;;;;6.50;99.90;;;;;;5012477;28;20434;-64
2023/12/19 07:09:31;;;;;;;;;;;6.50;99.90;;;;;;5015229;28;19929;-61
2023/12/19 07:11:58;;;;;;;;;;;6.50;99.90;;;;;;5013383;28;20286;-58
2023/12/19 07:14:28;;;;;;;;;;;6.50;99.90;;;;;;5020767;28;19972;-58
2023/12/19 07:16:55;;;;;;;;;;;6.40;99.90;;;;;;5015666;28;19930;-62
2023/12/19 07:19:22;;;;;;;;;;;6.40;99.90;;;;;;5017057;28;19940;-65
2023/12/19 07:21:49;;;;;;;;;;;6.40;99.90;;;;;;5008851;28;19972;-64
2023/12/19 07:24:16;;;;;;;;;;;6.40;99.90;;;;;;5006476;28;20015;-61
2023/12/19 07:26:43;;;;;;;;;;;6.40;99.90;;;;;;5011919;28;20049;-61
2023/12/19 07:29:10;;;;;;;;;;;6.30;99.90;;;;;;5007019;28;19984;-59
2023/12/19 07:31:38;;;;;;;;;;;6.30;99.90;;;;;;5013358;28;19935;-58
2023/12/19 07:34:06;;;;;;;;;;;6.30;99.90;;;;;;5008905;28;20356;-62
2023/12/19 07:36:33;;;;;;;;;;;6.30;99.90;;;;;;5010471;28;20599;-66
2023/12/19 07:39:00;;;;;;;;;;;6.30;99.90;;;;;;5015286;28;19925;-59
2023/12/19 07:41:27;;;;;;;;;;;6.30;99.90;;;;;;5017500;28;19936;-58
2023/12/19 07:43:54;;;;;;;;;;;6.30;99.90;;;;;;5008986;28;19926;-65
2023/12/19 07:46:21;;;;;;;;;;;6.30;99.90;;;;;;5006509;28;20052;-58
2023/12/19 07:48:49;;;;;;;;;;;6.30;99.90;;;;;;5008147;28;19936;-66
2023/12/19 07:51:17;;;;;;;;;;;6.30;99.90;;;;;;5012090;28;20276;-61
2023/12/19 07:53:43;;;;;;;;;;;6.30;99.90;;;;;;5011346;28;20051;-63
2023/12/19 07:56:10;;;;;;;;;;;6.40;99.90;;;;;;5016532;28;19967;-60
2023/12/19 07:58:37;;;;;;;;;;;6.40;99.90;;;;;;5009636;28;19944;-61
2023/12/19 08:01:04;;;;;;;;;;;6.30;99.90;;;;;;5010243;28;20688;-60
2023/12/19 08:03:33;;;;;;;;;;;6.30;99.90;;;;;;5013477;28;19933;-64
2023/12/19 08:06:00;;;;;;;;;;;6.30;99.90;;;;;;5011569;28;20409;-60
2023/12/19 08:08:27;;;;;;;;;;;6.30;99.90;;;;;;5001288;28;19960;-59
2023/12/19 08:10:53;;;;;;;;;;;6.30;99.90;;;;;;5008137;28;19960;-61
2023/12/19 08:13:20;;;;;;;;;;;6.30;99.90;;;;;;4985027;28;20037;-60
2023/12/19 08:15:48;;;;;;;;;;;6.20;99.90;;;;;;5014792;28;19929;-58
2023/12/19 08:18:15;;;;;;;;;;;6.20;99.90;;;;;;5005905;28;19926;-59
2023/12/19 08:20:42;;;;;;;;;;;6.20;99.90;;;;;;5012765;28;19983;-65
2023/12/19 08:23:09;;;;;;;;;;;6.20;99.90;;;;;;5010866;28;20108;-59
2023/12/19 08:25:37;;;;;;;;;;;6.20;99.90;;;;;;5011298;28;19929;-58
2023/12/19 08:28:07;;;;;;;;;;;6.20;99.90;;;;;;5008059;28;19929;-61
2023/12/19 08:30:34;;;;;;;;;;;6.10;99.90;;;;;;5011223;28;20031;-60
2023/12/19 08:33:02;;;;;;;;;;;6.20;99.90;;;;;;5009259;28;20004;-62
2023/12/19 08:35:29;;;;;;;;;;;6.20;99.90;;;;;;5006276;28;19937;-62
2023/12/19 08:37:56;;;;;;;;;;;6.20;99.90;;;;;;5001797;28;20314;-59
2023/12/19 08:40:23;;;;;;;;;;;6.10;99.90;;;;;;5007263;28;19929;-63
2023/12/19 08:42:50;;;;;;;;;;;6.20;99.90;;;;;;5009089;28;19933;-60
2023/12/19 08:45:18;;;;;;;;;;;6.20;99.90;;;;;;5009482;28;19935;-59
2023/12/19 08:47:46;;;;;;;;;;;6.20;99.90;;;;;;5014134;28;19929;-58
2023/12/19 08:50:13;;;;;;;;;;;6.20;99.90;;;;;;5012500;28;19929;-59
2023/12/19 08:52:42;;;;;;;;;;;6.20;99.90;;;;;;5012742;28;19925;-59
2023/12/19 08:55:10;;;;;;;;;;;6.20;99.90;;;;;;5002816;28;19933;-65
2023/12/19 08:57:44;;;;;;;;;;;6.20;99.90;;;;;;5012272;28;19972;-62
2023/12/19 09:00:18;;;;;;;;;;;6.20;99.90;;;;;;5004728;28;20371;-59
2023/12/19 09:02:45;;;;;;;;;;;6.20;99.90;;;;;;5014624;28;19925;-59
2023/12/19 09:05:13;;;;;;;;;;;6.20;99.90;;;;;;5004969;28;19937;-60
2023/12/19 09:07:41;;;;;;;;;;;6.30;99.90;;;;;;5009768;28;20596;-59
2023/12/19 09:10:08;;;;;;;;;;;6.30;99.90;;;;;;5011971;28;19972;-60
2023/12/19 09:12:36;;;;;;;;;;;6.30;99.90;;;;;;5011893;28;19939;-59
2023/12/19 09:15:03;;;;;;;;;;;6.30;99.90;;;;;;5006421;28;21068;-60
2023/12/19 09:17:30;;;;;;;;;;;6.40;99.90;;;;;;5010678;28;19933;-61
2023/12/19 09:19:57;;;;;;;;;;;6.40;99.90;;;;;;4998805;28;19930;-62
2023/12/19 09:22:25;;;;;;;;;;;6.40;99.90;;;;;;5007813;28;19929;-59
2023/12/19 09:24:52;;;;;;;;;;;6.40;99.90;;;;;;5000399;28;19953;-58
2023/12/19 09:27:19;;;;;;;;;;;6.40;99.90;;;;;;5008477;28;20016;-59
2023/12/19 09:29:45;;;;;;;;;;;6.40;99.90;;;;;;5001976;28;20054;-59
2023/12/19 09:32:15;;;;;;;;;;;6.40;99.90;;;;;;5012307;28;19979;-62
2023/12/19 09:34:41;;;;;;;;;;;6.40;99.90;;;;;;5007123;28;19934;-59
2023/12/19 09:37:08;;;;;;;;;;;6.40;99.90;;;;;;5014283;28;19960;-61
2023/12/19 09:39:35;;;;;;;;;;;6.40;99.90;;;;;;5014281;28;20253;-63
2023/12/19 09:42:03;;;;;;;;;;;6.40;99.90;;;;;;5007651;28;19932;-58
2023/12/19 09:44:30;;;;;;;;;;;6.40;99.90;;;;;;5009417;28;19937;-60
2023/12/19 09:46:56;;;;;;;;;;;6.30;99.90;;;;;;5004136;28;20360;-59
2023/12/19 09:49:24;;;;;;;;;;;6.30;99.90;;;;;;5005684;28;19930;-59
2023/12/19 09:51:52;;;;;;;;;;;6.40;99.90;;;;;;5012163;28;19934;-60
2023/12/19 09:54:20;;;;;;;;;;;6.30;99.90;;;;;;5009321;28;19957;-61
2023/12/19 09:56:48;;;;;;;;;;;6.30;99.90;;;;;;5007082;28;19926;-59
2023/12/19 09:59:18;;;;;;;;;;;6.30;99.90;;;;;;5012445;28;19930;-60
2023/12/19 10:01:45;;;;;;;;;;;6.40;99.90;;;;;;5012369;28;19929;-59
2023/12/19 10:04:16;;;;;;;;;;;6.40;99.90;;;;;;5015039;28;19929;-66
2023/12/19 10:06:57;;;;;;;;;;;6.40;99.90;;;;;;5001523;28;19936;-60
2023/12/19 10:09:24;;;;;;;;;;;6.30;99.90;;;;;;5010506;28;19929;-61
2023/12/19 10:12:06;;;;;;;;;;;6.40;99.90;;;;;;4999646;28;20393;-58
2023/12/19 10:14:33;;;;;;;;;;;6.30;99.90;;;;;;4998742;28;19937;-64
2023/12/19 10:17:01;;;;;;;;;;;6.30;99.90;;;;;;5005488;28;19933;-58
2023/12/19 10:19:28;;;;;;;;;;;6.30;99.90;;;;;;5011714;28;19975;-60
2023/12/19 10:22:05;;;;;;;;;;;6.30;99.90;;;;;;5012486;28;20435;-60
2023/12/19 10:24:32;;;;;;;;;;;6.30;99.90;;;;;;5013596;28;19929;-62
2023/12/19 10:27:02;;;;;;;;;;;6.30;99.90;;;;;;5005344;28;20045;-59
2023/12/19 10:29:36;;;;;;;;;;;6.30;99.90;;;;;;5002695;28;19933;-61
2023/12/19 10:32:16;;;;;;;;;;;6.30;99.90;;;;;;5006132;28;19932;-60
2023/12/19 10:34:44;;;;;;;;;;;6.30;99.90;;;;;;5000054;28;19930;-59
2023/12/19 10:37:20;;;;;;;;;;;6.30;99.90;;;;;;5008812;28;19926;-58
2023/12/19 10:39:50;;;;;;;;;;;6.30;99.90;;;;;;5006400;28;19933;-64
2023/12/19 10:42:20;;;;;;;;;;;6.30;99.90;;;;;;5000943;28;19932;-62
2023/12/19 10:44:48;;;;;;;;;;;6.20;99.90;;;;;;5010438;28;19937;-59
2023/12/19 10:47:16;;;;;;;;;;;6.20;99.90;;;;;;4992990;28;19929;-61
2023/12/19 10:49:42;;;;;;;;;;;6.20;99.90;;;;;;5016680;28;20307;-60
2023/12/19 10:52:12;;;;;;;;;;;6.20;99.90;;;;;;5004861;28;20564;-58
2023/12/19 10:54:40;;;;;;;;;;;6.20;99.90;;;;;;5007509;28;19925;-58
2023/12/19 10:57:17;;;;;;;;;;;6.20;99.90;;;;;;5008977;28;19995;-62
2023/12/19 10:59:46;;;;;;;;;;;6.20;99.90;;;;;;5007630;28;19925;-67
2023/12/19 11:02:31;;;;;;;;;;;6.20;99.90;;;;;;5010237;28;20023;-61
2023/12/19 11:05:03;;;;;;;;;;;6.10;99.90;;;;;;4989451;28;19936;-66
2023/12/19 11:07:32;;;;;;;;;;;6.10;99.90;;;;;;5008953;28;19933;-59
2023/12/19 11:10:01;;;;;;;;;;;6.10;99.90;;;;;;5007268;28;19929;-62
2023/12/19 11:12:28;;;;;;;;;;;6.10;99.90;;;;;;5011613;28;19980;-61
2023/12/19 11:14:55;;;;;;;;;;;6.00;99.90;;;;;;5019872;28;19937;-62
2023/12/19 11:17:26;;;;;;;;;;;6.00;99.90;;;;;;5010075;28;19979;-63
2023/12/19 11:19:56;;;;;;;;;;;6.00;99.90;;;;;;5009741;28;19965;-61
2023/12/19 11:22:31;;;;;;;;;;;6.00;99.90;;;;;;5014544;28;19932;-60
2023/12/19 11:25:07;;;;;;;;;;;6.00;99.90;;;;;;5008755;28;19926;-60
2023/12/19 11:27:46;;;;;;;;;;;6.00;99.90;;;;;;5013200;28;19936;-61
2023/12/19 11:30:40;;;;;;;;;;;6.00;99.90;;;;;;5011570;28;19988;-65
2023/12/19 11:33:07;;;;;;;;;;;6.00;99.90;;;;;;5016038;28;20498;-60
2023/12/19 11:35:34;;;;;;;;;;;5.90;99.90;;;;;;5013998;28;20388;-66
2023/12/19 11:38:13;;;;;;;;;;;5.90;99.90;;;;;;5014833;28;20411;-60
2023/12/19 11:40:49;;;;;;;;;;;5.90;99.90;;;;;;5002393;28;19933;-66
2023/12/19 11:43:33;;;;;;;;;;;5.90;99.90;;;;;;5009251;28;20033;-62
2023/12/19 11:46:03;;;;;;;;;;;5.90;99.90;;;;;;5008218;28;19964;-62
2023/12/19 11:48:36;;;;;;;;;;;5.90;99.90;;;;;;5013494;28;19933;-59
2023/12/19 11:51:04;;;;;;;;;;;5.90;99.90;;;;;;5002675;28;19929;-63
2023/12/19 11:53:31;;;;;;;;;;;5.90;99.90;;;;;;5017451;28;20327;-60
2023/12/19 11:56:05;;;;;;;;;;;5.80;99.90;;;;;;4998489;28;19934;-62
2023/12/19 11:58:32;;;;;;;;;;;5.80;99.90;;;;;;5012313;28;19929;-64
2023/12/19 12:01:00;;;;;;;;;;;5.80;99.90;;;;;;5017930;28;19929;-60
2023/12/19 12:03:28;;;;;;;;;;;5.80;99.90;;;;;;5008164;28;19925;-61
2023/12/19 12:05:55;;;;;;;;;;;5.80;99.90;;;;;;5010296;28;20099;-64
2023/12/19 12:08:22;;;;;;;;;;;5.80;99.90;;;;;;5010198;28;19932;-64
2023/12/19 12:10:57;;;;;;;;;;;5.80;99.90;;;;;;5007905;28;20521;-60
2023/12/19 12:13:24;;;;;;;;;;;5.80;99.90;;;;;;5011435;28;19930;-62
2023/12/19 12:15:53;;;;;;;;;;;5.80;99.90;;;;;;5010957;28;20375;-60
2023/12/19 12:18:20;;;;;;;;;;;5.80;99.90;;;;;;5015189;28;19934;-61
2023/12/19 12:20:47;;;;;;;;;;;5.80;99.90;;;;;;5011685;28;19933;-60
2023/12/19 12:23:18;;;;;;;;;;;5.80;99.90;;;;;;5013743;28;19976;-60
2023/12/19 12:25:57;;;;;;;;;;;5.80;99.90;;;;;;5009955;28;19957;-60
2023/12/19 12:28:25;;;;;;;;;;;5.80;99.90;;;;;;5009167;28;20330;-60
2023/12/19 12:30:54;;;;;;;;;;;5.80;99.90;;;;;;5009957;28;19961;-67
2023/12/19 12:33:27;;;;;;;;;;;5.80;99.90;;;;;;5014148;28;20012;-62
2023/12/19 12:35:55;;;;;;;;;;;5.80;99.90;;;;;;5007850;28;19945;-62
2023/12/19 12:38:22;;;;;;;;;;;5.70;99.90;;;;;;5012779;28;19929;-60
2023/12/19 12:41:00;;;;;;;;;;;5.70;99.90;;;;;;5012092;28;19988;-63
2023/12/19 12:43:36;;;;;;;;;;;5.70;99.90;;;;;;5008542;28;20411;-62
2023/12/19 12:46:05;;;;;;;;;;;5.70;99.90;;;;;;5012313;28;19937;-60
2023/12/19 12:48:31;;;;;;;;;;;5.60;99.90;;;;;;5019367;28;19983;-63
2023/12/19 12:50:59;;;;;;;;;;;5.60;99.90;;;;;;5003909;28;19929;-61
2023/12/19 12:53:25;;;;;;;;;;;5.60;99.90;;;;;;5009844;28;19934;-63
2023/12/19 12:56:09;;;;;;;;;;;5.60;99.90;;;;;;5012437;28;19983;-59
2023/12/19 12:58:36;;;;;;;;;;;5.60;99.90;;;;;;5010168;28;19936;-61
2023/12/19 13:01:03;;;;;;;;;;;5.60;99.90;;;;;;5014372;28;19925;-60
2023/12/19 13:03:31;;;;;;;;;;;5.50;99.90;;;;;;5012978;28;19961;-60
2023/12/19 13:06:00;;;;;;;;;;;5.50;99.90;;;;;;5015119;28;19925;-63
2023/12/19 13:08:31;;;;;;;;;;;5.50;99.90;;;;;;5014980;28;20298;-59
2023/12/19 13:10:58;;;;;;;;;;;5.50;99.90;;;;;;5017891;28;19998;-62
2023/12/19 13:13:25;;;;;;;;;;;5.60;99.90;;;;;;5006011;28;19934;-63
2023/12/19 13:15:53;;;;;;;;;;;5.60;99.90;;;;;;5003001;28;19933;-64
2023/12/19 13:18:21;;;;;;;;;;;5.50;99.90;;;;;;5003800;28;19929;-61
2023/12/19 13:20:48;;;;;;;;;;;5.50;99.90;;;;;;5006485;28;19936;-62
2023/12/19 13:23:14;;;;;;;;;;;5.50;99.90;;;;;;5007408;28;19988;-61
2023/12/19 13:25:41;;;;;;;;;;;5.50;99.90;;;;;;5010571;28;19945;-64
2023/12/19 13:28:11;;;;;;;;;;;5.50;99.90;;;;;;5005997;28;19936;-59
2023/12/19 13:30:39;;;;;;;;;;;5.40;99.90;;;;;;5017158;28;19960;-59
2023/12/19 13:33:13;;;;;;;;;;;5.40;99.90;;;;;;5012113;28;19933;-59
2023/12/19 13:35:40;;;;;;;;;;;5.40;99.90;;;;;;5015083;28;20432;-60
2023/12/19 13:38:11;;;;;;;;;;;5.40;99.90;;;;;;5007044;28;19991;-61
2023/12/19 13:40:37;;;;;;;;;;;5.40;99.90;;;;;;5008324;28;19965;-62
2023/12/19 13:43:05;;;;;;;;;;;5.30;99.90;;;;;;5006959;28;20303;-60
2023/12/19 13:45:33;;;;;;;;;;;5.30;99.90;;;;;;5008855;28;20583;-61
2023/12/19 13:48:04;;;;;;;;;;;5.30;99.90;;;;;;5008155;28;19929;-59
2023/12/19 13:50:31;;;;;;;;;;;5.30;99.90;;;;;;5005129;28;19935;-61
2023/12/19 13:52:58;;;;;;;;;;;5.30;99.90;;;;;;5007603;28;20328;-59
2023/12/19 13:55:25;;;;;;;;;;;5.30;99.90;;;;;;5009066;28;19929;-61
2023/12/19 13:57:52;;;;;;;;;;;5.30;99.90;;;;;;5015473;28;19930;-58
2023/12/19 14:00:20;;;;;;;;;;;5.20;99.90;;;;;;5007003;28;19934;-60
2023/12/19 14:02:58;;;;;;;;;;;5.30;99.90;;;;;;5007965;28;19987;-60
2023/12/19 14:05:26;;;;;;;;;;;5.20;99.90;;;;;;5006528;28;19964;-59
2023/12/19 14:07:55;;;;;;;;;;;5.20;99.90;;;;;;5008074;28;20020;-59
2023/12/19 14:10:23;;;;;;;;;;;5.20;99.90;;;;;;5008562;28;19925;-59
2023/12/19 14:12:50;;;;;;;;;;;5.10;99.90;;;;;;5009729;28;19964;-65
2023/12/19 14:15:17;;;;;;;;;;;5.20;99.90;;;;;;5012447;28;19929;-61
2023/12/19 14:17:43;;;;;;;;;;;5.10;99.90;;;;;;5014384;28;20026;-60
2023/12/19 14:20:12;;;;;;;;;;;5.10;99.90;;;;;;5013709;28;19932;-59
2023/12/19 14:22:39;;;;;;;;;;;5.10;99.90;;;;;;5012498;28;20248;-62
2023/12/19 14:25:07;;;;;;;;;;;5.10;99.90;;;;;;5004848;28;20334;-62
2023/12/19 14:27:34;;;;;;;;;;;5.10;99.90;;;;;;5007436;28;19933;-66
2023/12/19 14:30:01;;;;;;;;;;;5.10;99.90;;;;;;5004938;28;19929;-59
2023/12/19 14:32:28;;;;;;;;;;;5.10;99.90;;;;;;5009924;28;19995;-63
2023/12/19 14:34:55;;;;;;;;;;;5.10;99.90;;;;;;5007220;28;20465;-60
2023/12/19 14:37:22;;;;;;;;;;;5.10;99.90;;;;;;5009061;28;20023;-62